createdAt,value
2019-06-26T00:00:23.009Z,11.55
2019-06-26T00:02:53.819Z,11.35
2019-06-26T00:05:24.793Z,10.80
2019-06-26T00:07:56.773Z,11.20
2019-06-26T00:10:27.448Z,10.88
2019-06-26T00:12:58.576Z,10.70
2019-06-26T00:15:29.408Z,11.25
2019-06-26T00:18:00.231Z,10.72
2019-06-26T00:20:31.004Z,10.75
2019-06-26T00:23:02.452Z,11.08
2019-06-26T00:25:33.344Z,11.10
2019-06-26T00:28:04.625Z,10.90
2019-06-26T00:30:36.580Z,10.82
2019-06-26T00:33:07.406Z,10.90
2019-06-26T00:35:38.148Z,10.98
2019-06-26T00:38:08.953Z,11.10
2019-06-26T00:40:39.824Z,11.48
2019-06-26T00:43:10.731Z,11.30
2019-06-26T00:45:42.043Z,11.10
2019-06-26T00:48:12.717Z,11.88
2019-06-26T00:50:43.411Z,11.05
2019-06-26T00:53:14.713Z,11.93
2019-06-26T00:55:45.691Z,10.75
2019-06-26T00:58:18.226Z,11.73
2019-06-26T01:00:52.004Z,11.28
2019-06-26T01:03:22.739Z,11.95
2019-06-26T01:05:53.781Z,11.97
2019-06-26T01:08:25.625Z,11.30
2019-06-26T01:10:56.704Z,11.85
2019-06-26T01:13:28.046Z,12.05
2019-06-26T01:15:58.850Z,12.15
2019-06-26T01:18:30.175Z,11.80
2019-06-26T01:21:01.335Z,12.33
2019-06-26T01:23:32.253Z,12.43
2019-06-26T01:26:03.301Z,11.80
2019-06-26T01:28:34.725Z,11.70
2019-06-26T01:31:06.027Z,11.40
2019-06-26T01:33:37.864Z,12.63
2019-06-26T01:36:09.815Z,12.45
2019-06-26T01:38:41.148Z,12.47
2019-06-26T01:41:11.996Z,11.85
2019-06-26T01:43:43.312Z,11.90
2019-06-26T01:46:14.148Z,12.35
2019-06-26T01:48:45.118Z,11.90
2019-06-26T01:51:15.969Z,11.12
2019-06-26T01:53:46.840Z,11.55
2019-06-26T01:56:17.807Z,11.18
2019-06-26T01:58:48.623Z,12.10
2019-06-26T02:01:19.332Z,11.65
2019-06-26T02:03:50.244Z,12.47
2019-06-26T02:06:21.007Z,12.63
2019-06-26T02:08:51.944Z,13.43
2019-06-26T02:11:22.726Z,12.13
2019-06-26T02:13:53.515Z,12.20
2019-06-26T02:16:26.019Z,12.40
2019-06-26T02:19:01.534Z,12.58
2019-06-26T02:21:33.610Z,12.15
2019-06-26T02:24:04.478Z,12.20
2019-06-26T02:26:36.019Z,13.72
2019-06-26T02:29:07.140Z,12.58
2019-06-26T02:31:38.622Z,12.50
2019-06-26T02:34:09.347Z,11.80
2019-06-26T02:36:40.339Z,12.93
2019-06-26T02:39:11.319Z,12.93
2019-06-26T02:41:42.183Z,12.07
2019-06-26T02:44:13.407Z,13.43
2019-06-26T02:46:44.116Z,13.17
2019-06-26T02:49:14.841Z,12.60
2019-06-26T02:51:45.691Z,12.93
2019-06-26T02:54:16.816Z,13.53
2019-06-26T02:56:47.605Z,13.35
2019-06-26T02:59:18.335Z,13.15
2019-06-26T03:01:49.092Z,12.70
2019-06-26T03:04:19.969Z,13.35
2019-06-26T03:06:50.966Z,14.90
2019-06-26T03:09:22.529Z,15.50
2019-06-26T03:11:53.386Z,14.68
2019-06-26T03:14:24.818Z,15.38
2019-06-26T03:16:55.710Z,13.28
2019-06-26T03:19:27.280Z,13.25
2019-06-26T03:21:58.029Z,12.65
2019-06-26T03:24:28.705Z,13.50
2019-06-26T03:26:59.441Z,13.08
2019-06-26T03:29:30.325Z,12.88
2019-06-26T03:32:01.056Z,14.38
2019-06-26T03:34:32.433Z,12.47
2019-06-26T03:37:03.389Z,13.45
2019-06-26T03:39:34.407Z,13.43
2019-06-26T03:42:06.509Z,13.38
2019-06-26T03:44:38.045Z,14.23
2019-06-26T03:47:09.184Z,13.68
2019-06-26T03:49:39.921Z,12.95
2019-06-26T03:52:12.533Z,17.75
2019-06-26T03:54:43.289Z,14.28
2019-06-26T03:57:14.202Z,14.58
2019-06-26T03:59:45.364Z,15.35
2019-06-26T04:02:16.120Z,13.95
2019-06-26T04:04:46.846Z,15.15
2019-06-26T04:07:17.715Z,17.30
2019-06-26T04:09:49.377Z,14.55
2019-06-26T04:12:20.170Z,14.10
2019-06-26T04:14:51.313Z,12.55
2019-06-26T04:17:22.412Z,13.55
2019-06-26T04:19:53.150Z,12.25
2019-06-26T04:22:24.137Z,12.28
2019-06-26T04:24:56.176Z,11.43
2019-06-26T04:27:27.038Z,11.97
2019-06-26T04:29:57.756Z,12.15
2019-06-26T04:32:28.483Z,12.78
2019-06-26T04:34:59.221Z,12.98
2019-06-26T04:37:30.603Z,13.98
2019-06-26T04:40:01.254Z,12.03
2019-06-26T04:42:32.121Z,12.60
2019-06-26T04:45:03.296Z,11.55
2019-06-26T04:47:34.560Z,12.13
2019-06-26T04:50:10.128Z,13.90
2019-06-26T04:52:41.785Z,13.00
2019-06-26T04:55:14.026Z,16.25
2019-06-26T04:57:45.498Z,20.52
2019-06-26T05:00:17.367Z,17.80
2019-06-26T05:02:48.259Z,12.15
2019-06-26T05:05:19.057Z,16.10
2019-06-26T05:07:49.906Z,14.23
2019-06-26T05:10:21.989Z,11.73
2019-06-26T05:12:52.838Z,12.33
2019-06-26T05:15:23.587Z,12.78
2019-06-26T05:17:54.917Z,11.10
2019-06-26T05:20:27.077Z,11.48
2019-06-26T05:22:57.912Z,10.90
2019-06-26T05:25:28.758Z,11.15
2019-06-26T05:27:59.475Z,12.20
2019-06-26T05:30:30.361Z,12.78
2019-06-26T05:33:01.291Z,11.40
2019-06-26T05:35:35.010Z,11.18
2019-06-26T05:38:04.446Z,12.33
2019-06-26T05:40:35.191Z,14.25
2019-06-26T05:43:06.141Z,13.08
2019-06-26T05:45:36.862Z,10.13
2019-06-26T05:48:07.968Z,10.63
2019-06-26T05:50:38.688Z,10.63
2019-06-26T05:53:09.640Z,12.05
2019-06-26T05:55:40.414Z,13.10
2019-06-26T05:58:11.409Z,10.03
2019-06-26T06:00:42.245Z,11.75
2019-06-26T06:03:13.006Z,10.25
2019-06-26T06:05:45.253Z,10.30
2019-06-26T06:08:16.178Z,11.22
2019-06-26T06:10:47.225Z,10.65
2019-06-26T06:13:18.043Z,10.55
2019-06-26T06:15:49.749Z,11.50
2019-06-26T06:18:21.994Z,10.93
2019-06-26T06:20:52.924Z,11.05
2019-06-26T06:23:23.819Z,11.10
2019-06-26T06:25:55.579Z,10.88
2019-06-26T06:28:26.486Z,11.03
2019-06-26T06:30:57.549Z,10.40
2019-06-26T06:33:28.543Z,11.12
2019-06-26T06:35:59.384Z,10.48
2019-06-26T06:38:30.193Z,11.73
2019-06-26T06:41:01.179Z,10.03
2019-06-26T06:43:32.136Z,11.08
2019-06-26T06:46:03.237Z,10.80
2019-06-26T06:48:34.187Z,10.55
2019-06-26T06:51:07.642Z,12.10
2019-06-26T06:53:38.405Z,10.88
2019-06-26T06:56:09.386Z,10.63
2019-06-26T06:58:41.306Z,10.43
2019-06-26T07:01:12.161Z,10.90
2019-06-26T07:03:43.048Z,10.50
2019-06-26T07:06:14.042Z,11.25
2019-06-26T07:08:44.875Z,10.85
2019-06-26T07:11:16.680Z,10.25
2019-06-26T07:13:47.866Z,10.93
2019-06-26T07:16:19.192Z,9.55
2019-06-26T07:18:50.238Z,10.55
2019-06-26T07:21:21.474Z,10.78
2019-06-26T07:23:52.527Z,9.98
2019-06-26T07:26:23.501Z,10.60
2019-06-26T07:28:54.871Z,9.13
2019-06-26T07:31:25.511Z,9.50
2019-06-26T07:33:57.736Z,10.32
2019-06-26T07:36:28.632Z,10.05
2019-06-26T07:38:59.811Z,9.38
2019-06-26T07:41:31.186Z,9.95
2019-06-26T07:44:02.719Z,10.08
2019-06-26T07:46:34.046Z,9.03
2019-06-26T07:49:05.181Z,9.30
2019-06-26T07:51:36.020Z,9.50
2019-06-26T07:54:06.939Z,8.98
2019-06-26T07:56:37.736Z,9.30
2019-06-26T07:59:11.274Z,9.13
2019-06-26T08:01:42.198Z,8.58
2019-06-26T08:04:13.415Z,9.78
2019-06-26T08:06:48.268Z,8.90
2019-06-26T08:09:19.132Z,8.73
2019-06-26T08:11:50.031Z,8.45
2019-06-26T08:14:21.004Z,8.73
2019-06-26T08:16:52.378Z,8.15
2019-06-26T08:19:23.651Z,7.78
2019-06-26T08:21:54.506Z,7.72
2019-06-26T08:24:25.533Z,7.17
2019-06-26T08:26:56.382Z,7.25
2019-06-26T08:29:27.301Z,7.85
2019-06-26T08:31:59.892Z,7.12
2019-06-26T08:34:31.469Z,6.40
2019-06-26T08:37:02.550Z,6.80
2019-06-26T08:39:33.956Z,6.22
2019-06-26T08:42:05.286Z,6.37
2019-06-26T08:44:36.328Z,7.05
2019-06-26T08:47:07.415Z,6.20
2019-06-26T08:49:38.714Z,6.42
2019-06-26T08:52:09.680Z,6.55
2019-06-26T08:54:41.572Z,6.08
2019-06-26T08:57:13.160Z,6.00
2019-06-26T08:59:44.366Z,6.08
2019-06-26T09:02:15.300Z,5.67
2019-06-26T09:04:46.585Z,6.40
2019-06-26T09:07:17.556Z,5.75
2019-06-26T09:09:48.941Z,5.28
2019-06-26T09:12:21.073Z,6.30
2019-06-26T09:14:53.037Z,5.67
2019-06-26T09:17:24.348Z,6.12
2019-06-26T09:19:55.381Z,5.47
2019-06-26T09:22:26.530Z,5.42
2019-06-26T09:24:57.864Z,5.70
2019-06-26T09:27:29.690Z,5.58
2019-06-26T09:30:01.048Z,6.10
2019-06-26T09:32:31.998Z,5.90
2019-06-26T09:35:03.399Z,5.95
2019-06-26T09:37:35.083Z,5.78
2019-06-26T09:40:07.274Z,6.62
2019-06-26T09:42:38.182Z,6.33
2019-06-26T09:45:10.130Z,6.22
2019-06-26T09:47:41.040Z,6.35
2019-06-26T09:50:12.748Z,6.03
2019-06-26T09:52:46.065Z,6.00
2019-06-26T09:55:20.627Z,6.65
2019-06-26T09:57:51.551Z,6.95
2019-06-26T10:00:24.590Z,5.60
2019-06-26T10:02:55.499Z,7.12
2019-06-26T10:05:26.405Z,6.80
2019-06-26T10:07:57.298Z,6.95
2019-06-26T10:10:29.193Z,6.60
2019-06-26T10:13:02.119Z,6.45
2019-06-26T10:15:33.142Z,7.25
2019-06-26T10:18:05.336Z,6.35
2019-06-26T10:20:36.152Z,7.10
2019-06-26T10:23:07.271Z,7.45
2019-06-26T10:25:38.340Z,6.45
2019-06-26T10:28:09.284Z,7.10
2019-06-26T10:30:40.645Z,7.83
2019-06-26T10:33:11.557Z,6.83
2019-06-26T10:35:42.412Z,6.97
2019-06-26T10:38:13.820Z,6.30
2019-06-26T10:40:45.444Z,7.33
2019-06-26T10:43:34.842Z,6.72
2019-06-26T10:46:06.649Z,6.50
2019-06-26T10:48:37.629Z,7.22
2019-06-26T10:51:08.582Z,6.70
2019-06-26T10:53:39.533Z,7.65
2019-06-26T10:56:10.749Z,7.58
2019-06-26T10:58:44.524Z,7.17
2019-06-26T11:01:15.794Z,7.00
2019-06-26T11:03:47.636Z,6.80
2019-06-26T11:06:19.185Z,7.58
2019-06-26T11:08:50.759Z,7.42
2019-06-26T11:11:21.701Z,6.47
2019-06-26T11:13:52.852Z,6.55
2019-06-26T11:16:24.783Z,6.37
2019-06-26T11:18:56.458Z,7.15
2019-06-26T11:21:27.907Z,6.60
2019-06-26T11:23:59.101Z,6.75
2019-06-26T11:26:30.181Z,6.78
2019-06-26T11:29:01.390Z,5.70
2019-06-26T11:31:32.217Z,6.00
2019-06-26T11:34:03.577Z,5.50
2019-06-26T11:36:35.512Z,5.35
2019-06-26T11:39:07.675Z,5.85
2019-06-26T11:41:39.014Z,5.60
2019-06-26T11:44:09.785Z,5.72
2019-06-26T11:46:40.773Z,5.92
2019-06-26T11:49:12.185Z,5.83
2019-06-26T11:51:43.864Z,6.05
2019-06-26T11:54:14.899Z,6.10
2019-06-26T11:56:45.975Z,6.30
2019-06-26T11:59:17.503Z,6.03
2019-06-26T12:01:48.959Z,6.00
2019-06-26T12:04:20.963Z,6.15
2019-06-26T12:06:53.356Z,6.30
2019-06-26T12:09:24.369Z,5.75
2019-06-26T12:11:55.310Z,6.53
2019-06-26T12:14:28.506Z,6.45
2019-06-26T12:16:59.375Z,5.95
2019-06-26T12:19:30.467Z,5.95
2019-06-26T12:22:01.230Z,5.80
2019-06-26T12:24:32.526Z,5.75
2019-06-26T12:27:03.461Z,5.92
2019-06-26T12:29:34.710Z,6.53
2019-06-26T12:32:06.214Z,6.10
2019-06-26T12:34:37.278Z,5.90
2019-06-26T12:37:08.088Z,5.58
2019-06-26T12:39:38.936Z,5.67
2019-06-26T12:42:09.825Z,5.80
2019-06-26T12:44:40.921Z,5.22
2019-06-26T12:47:15.726Z,5.20
2019-06-26T12:49:46.665Z,5.83
2019-06-26T12:52:17.993Z,6.22
2019-06-26T12:54:49.873Z,5.33
2019-06-26T12:57:21.034Z,5.70
2019-06-26T12:59:57.749Z,5.87
2019-06-26T13:02:25.747Z,5.85
2019-06-26T13:04:56.646Z,6.33
2019-06-26T13:07:27.421Z,5.75
2019-06-26T13:09:58.266Z,5.90
2019-06-26T13:12:29.633Z,6.10
2019-06-26T13:15:01.776Z,5.65
2019-06-26T13:17:34.297Z,5.97
2019-06-26T13:20:10.692Z,5.97
2019-06-26T13:22:41.950Z,5.67
2019-06-26T13:25:15.766Z,5.83
2019-06-26T13:27:45.964Z,5.50
2019-06-26T13:30:32.695Z,5.35
2019-06-26T13:33:04.041Z,5.00
2019-06-26T13:35:35.333Z,4.30
2019-06-26T13:38:06.534Z,4.35
2019-06-26T13:40:40.790Z,4.47
2019-06-26T13:43:10.696Z,4.40
2019-06-26T13:45:42.334Z,4.37
2019-06-26T13:48:13.487Z,4.40
2019-06-26T13:50:44.476Z,4.40
2019-06-26T13:53:16.468Z,4.78
2019-06-26T13:55:47.348Z,4.60
2019-06-26T13:58:18.303Z,4.58
2019-06-26T14:00:49.070Z,4.28
2019-06-26T14:03:23.478Z,5.05
2019-06-26T14:06:01.658Z,4.50
2019-06-26T14:08:33.036Z,4.80
2019-06-26T14:11:07.303Z,5.67
2019-06-26T14:13:41.658Z,5.30
2019-06-26T14:16:11.351Z,5.65
2019-06-26T14:18:43.938Z,5.30
2019-06-26T14:21:24.964Z,5.72
2019-06-26T14:23:49.758Z,5.58
2019-06-26T14:26:20.895Z,5.90
2019-06-26T14:28:54.177Z,5.92
2019-06-26T14:31:25.541Z,5.92
2019-06-26T14:33:56.884Z,6.30
2019-06-26T14:36:28.288Z,6.25
2019-06-26T14:38:59.363Z,5.60
2019-06-26T14:41:30.226Z,5.65
2019-06-26T14:44:01.095Z,5.87
2019-06-26T14:46:32.424Z,5.65
2019-06-26T14:49:04.374Z,5.42
2019-06-26T14:51:43.849Z,6.65
2019-06-26T14:54:09.115Z,5.35
2019-06-26T14:56:40.534Z,5.53
2019-06-26T14:59:12.154Z,5.17
2019-06-26T15:01:43.581Z,5.35
2019-06-26T15:04:14.807Z,5.40
2019-06-26T15:06:45.820Z,6.28
2019-06-26T15:09:16.702Z,5.42
2019-06-26T15:11:47.643Z,5.62
2019-06-26T15:14:18.626Z,5.53
2019-06-26T15:16:50.813Z,5.90
2019-06-26T15:19:21.492Z,6.08
2019-06-26T15:21:58.365Z,6.08
2019-06-26T15:24:25.115Z,6.25
2019-06-26T15:26:55.944Z,6.95
2019-06-26T15:29:26.770Z,7.40
2019-06-26T15:31:57.898Z,7.33
2019-06-26T15:34:28.988Z,6.53
2019-06-26T15:37:00.136Z,6.70
2019-06-26T15:39:31.067Z,7.22
2019-06-26T15:42:01.798Z,6.97
2019-06-26T15:44:32.528Z,6.60
2019-06-26T15:47:04.982Z,7.03
2019-06-26T15:49:35.730Z,7.08
2019-06-26T15:52:14.928Z,6.72
2019-06-26T15:54:39.195Z,7.00
2019-06-26T15:57:10.146Z,7.00
2019-06-26T15:59:42.259Z,6.58
2019-06-26T16:02:13.313Z,6.70
2019-06-26T16:04:44.480Z,6.58
2019-06-26T16:07:16.390Z,6.37
2019-06-26T16:09:48.067Z,6.03
2019-06-26T16:12:19.153Z,6.25
2019-06-26T16:14:50.042Z,6.28
2019-06-26T16:17:35.634Z,6.78
2019-06-26T16:20:07.904Z,6.42
2019-06-26T16:22:40.589Z,6.70
2019-06-26T16:25:11.589Z,6.30
2019-06-26T16:27:42.529Z,6.60
2019-06-26T16:30:13.614Z,6.97
2019-06-26T16:32:44.542Z,6.75
2019-06-26T16:35:15.518Z,7.15
2019-06-26T16:37:47.434Z,6.62
2019-06-26T16:40:20.025Z,6.28
2019-06-26T16:42:51.424Z,6.80
2019-06-26T16:45:22.482Z,6.40
2019-06-26T16:47:53.337Z,6.50
2019-06-26T16:50:24.045Z,6.53
2019-06-26T16:52:54.950Z,6.22
2019-06-26T16:55:25.967Z,5.97
2019-06-26T16:57:56.841Z,6.35
2019-06-26T17:00:27.636Z,6.90
2019-06-26T17:02:58.503Z,6.20
2019-06-26T17:05:29.901Z,6.58
2019-06-26T17:08:00.634Z,6.53
2019-06-26T17:10:31.465Z,6.72
2019-06-26T17:13:04.298Z,6.78
2019-06-26T17:15:35.380Z,6.42
2019-06-26T17:18:07.054Z,6.80
2019-06-26T17:20:38.944Z,6.90
2019-06-26T17:23:10.932Z,6.53
2019-06-26T17:25:42.445Z,6.80
2019-06-26T17:28:13.751Z,17.40
2019-06-26T17:30:45.391Z,7.65
2019-06-26T17:33:17.494Z,6.97
2019-06-26T17:35:48.659Z,7.22
2019-06-26T17:38:19.341Z,7.50
2019-06-26T17:40:51.855Z,7.08
2019-06-26T17:43:25.923Z,7.37
2019-06-26T17:45:59.055Z,6.90
2019-06-26T17:48:31.297Z,7.15
2019-06-26T17:51:03.141Z,7.50
2019-06-26T17:53:34.133Z,7.60
2019-06-26T17:56:05.207Z,7.70
2019-06-26T17:58:36.110Z,7.50
2019-06-26T18:01:07.238Z,7.50
2019-06-26T18:03:39.108Z,7.17
2019-06-26T18:06:09.948Z,7.12
2019-06-26T18:08:41.229Z,7.25
2019-06-26T18:11:12.075Z,8.40
2019-06-26T18:13:42.961Z,7.50
2019-06-26T18:16:13.743Z,8.03
2019-06-26T18:18:44.864Z,8.78
2019-06-26T18:21:15.958Z,7.67
2019-06-26T18:23:47.201Z,7.67
2019-06-26T18:26:18.516Z,8.68
2019-06-26T18:28:49.475Z,7.87
2019-06-26T18:31:21.451Z,7.17
2019-06-26T18:33:52.565Z,7.78
2019-06-26T18:36:23.653Z,7.70
2019-06-26T18:38:54.530Z,7.90
2019-06-26T18:41:25.518Z,8.28
2019-06-26T18:43:56.344Z,8.70
2019-06-26T18:46:27.543Z,8.05
2019-06-26T18:48:58.811Z,8.13
2019-06-26T18:51:30.454Z,8.30
2019-06-26T18:54:04.352Z,8.10
2019-06-26T18:56:35.613Z,8.28
2019-06-26T18:59:08.063Z,8.38
2019-06-26T19:01:40.535Z,8.65
2019-06-26T19:04:13.694Z,8.50
2019-06-26T19:06:44.944Z,8.73
2019-06-26T19:09:17.414Z,9.00
2019-06-26T19:11:48.596Z,8.58
2019-06-26T19:14:19.911Z,9.08
2019-06-26T19:16:50.959Z,8.43
2019-06-26T19:19:21.951Z,8.23
2019-06-26T19:21:55.086Z,8.73
2019-06-26T19:24:26.096Z,8.25
2019-06-26T19:26:57.228Z,9.35
2019-06-26T19:29:28.109Z,8.85
2019-06-26T19:32:00.154Z,9.15
2019-06-26T19:34:31.144Z,8.73
2019-06-26T19:37:02.640Z,9.10
2019-06-26T19:39:33.602Z,9.13
2019-06-26T19:42:04.755Z,9.15
2019-06-26T19:44:35.845Z,8.80
2019-06-26T19:47:08.730Z,8.13
2019-06-26T19:49:40.202Z,9.30
2019-06-26T19:52:11.891Z,8.70
2019-06-26T19:54:43.009Z,8.53
2019-06-26T19:57:14.182Z,9.28
2019-06-26T19:59:44.827Z,8.70
2019-06-26T20:02:15.618Z,8.85
2019-06-26T20:04:48.325Z,8.75
2019-06-26T20:07:19.414Z,8.45
2019-06-26T20:09:50.398Z,8.63
2019-06-26T20:12:21.749Z,8.13
2019-06-26T20:14:52.924Z,9.20
2019-06-26T20:17:25.016Z,8.98
2019-06-26T20:19:56.871Z,9.05
2019-06-26T20:22:27.669Z,8.70
2019-06-26T20:25:01.488Z,8.43
2019-06-26T20:27:33.135Z,8.58
2019-06-26T20:30:09.419Z,8.48
2019-06-26T20:32:39.375Z,8.50
2019-06-26T20:35:10.577Z,9.08
2019-06-26T20:37:41.711Z,8.78
2019-06-26T20:40:12.798Z,8.10
2019-06-26T20:42:46.364Z,8.70
2019-06-26T20:45:17.712Z,8.63
2019-06-26T20:47:48.943Z,9.03
2019-06-26T20:50:19.734Z,8.00
2019-06-26T20:52:50.910Z,8.95
2019-06-26T20:55:21.699Z,9.33
2019-06-26T20:57:53.335Z,8.40
2019-06-26T21:00:24.412Z,8.50
2019-06-26T21:02:57.900Z,8.50
2019-06-26T21:05:29.565Z,9.08
2019-06-26T21:08:00.433Z,8.38
2019-06-26T21:10:31.304Z,9.40
2019-06-26T21:13:02.268Z,8.70
2019-06-26T21:15:34.096Z,8.75
2019-06-26T21:18:05.327Z,9.35
2019-06-26T21:20:37.090Z,7.92
2019-06-26T21:23:18.011Z,8.48
2019-06-26T21:25:40.697Z,8.55
2019-06-26T21:28:11.598Z,8.43
2019-06-26T21:30:42.943Z,13.08
2019-06-26T21:33:13.886Z,8.30
2019-06-26T21:35:45.955Z,8.90
2019-06-26T21:38:16.894Z,7.58
2019-06-26T21:40:48.119Z,10.95
2019-06-26T21:43:19.304Z,8.43
2019-06-26T21:45:51.569Z,7.55
2019-06-26T21:48:22.840Z,7.35
2019-06-26T21:50:54.036Z,8.28
2019-06-26T21:53:25.167Z,7.95
2019-06-26T21:56:14.052Z,7.62
2019-06-26T21:59:03.683Z,7.80
2019-06-26T22:01:52.461Z,7.62
2019-06-26T22:04:41.806Z,7.35
2019-06-26T22:07:29.513Z,6.97
2019-06-26T22:10:01.899Z,7.75
2019-06-26T22:12:34.448Z,7.15
2019-06-26T22:15:06.603Z,6.92
2019-06-26T22:17:39.809Z,6.65
2019-06-26T22:20:12.645Z,7.10
2019-06-26T22:22:44.913Z,7.25
2019-06-26T22:25:16.205Z,7.12
2019-06-26T22:27:47.235Z,7.35
2019-06-26T22:30:18.915Z,7.30
2019-06-26T22:32:49.646Z,6.72
2019-06-26T22:35:20.311Z,6.55
2019-06-26T22:37:50.948Z,6.53
2019-06-26T22:40:23.742Z,6.90
2019-06-26T22:42:54.749Z,7.00
2019-06-26T22:45:25.736Z,6.47
2019-06-26T22:47:56.907Z,6.85
2019-06-26T22:50:27.851Z,6.10
2019-06-26T22:52:58.816Z,6.60
2019-06-26T22:55:29.500Z,6.78
2019-06-26T22:58:00.436Z,6.67
2019-06-26T23:00:31.379Z,7.05
2019-06-26T23:03:02.382Z,6.25
2019-06-26T23:05:33.570Z,6.65
2019-06-26T23:08:04.706Z,6.50
2019-06-26T23:10:35.680Z,5.60
2019-06-26T23:13:09.476Z,5.47
2019-06-26T23:15:39.299Z,6.33
2019-06-26T23:18:10.314Z,6.08
2019-06-26T23:20:41.903Z,4.87
2019-06-26T23:23:12.878Z,4.53
2019-06-26T23:25:43.786Z,4.00
2019-06-26T23:28:14.610Z,4.05
2019-06-26T23:30:45.599Z,3.98
2019-06-26T23:33:16.488Z,4.20
2019-06-26T23:35:47.371Z,3.70
2019-06-26T23:38:18.077Z,3.40
2019-06-26T23:40:48.825Z,3.83
2019-06-26T23:43:19.633Z,3.17
2019-06-26T23:45:51.255Z,3.35
2019-06-26T23:48:22.123Z,3.20
2019-06-26T23:50:52.793Z,3.00
2019-06-26T23:53:24.021Z,2.80
2019-06-26T23:55:54.668Z,2.70
2019-06-26T23:58:25.472Z,2.30
